CheckWX is a tool to help pilots better visualize weather data.  It is not intended as a substitute for an official pre-flight weather briefing.

23:29:05 UTC

KLGA METAR
Laguardia Airport
New York, New York, USA
Current

38 mins ago

KLGA 242251Z 17010KT 10SM FEW090 SCT180 BKN250 10/01 A2994 RMK AO2 SLP136 T01000006
Observed
Feb-24 @ 22:51 UTC
Wind
  • 170° at 10 KTS
Visibility
10 SM
Flight Rules
VFR
Cloud Levels
  • Few at 9,000' AGL
  • Scattered at 18,000' AGL
  • Broken at 25,000' AGL
Temperature
10°C / 50°F
Dewpoint
C / 34°F
Humidity
54%
Altimeter
29.94" Hg
Pressure
1013.92 hPa
Previous

2 hours ago

KLGA 242151Z COR 16012KT 10SM FEW090 SCT180 BKN250 11/M02 A2995 RMK AO2 SLP141 T01111017
Observed
Feb-24 @ 21:51 UTC
Wind
  • 160° at 12 KTS
Visibility
10 SM
Flight Rules
VFR
Cloud Levels
  • Few at 9,000' AGL
  • Scattered at 18,000' AGL
  • Broken at 25,000' AGL
Temperature
11°C / 52°F
Dewpoint
-2°C / 28°F
Humidity
41%
Altimeter
29.95" Hg
Pressure
1014.22 hPa
Previous

3 hours ago

KLGA 242051Z 17007KT 10SM FEW090 SCT140 BKN250 13/M04 A2996 RMK AO2 SLP146 T01281044 58014
Observed
Feb-24 @ 20:51 UTC
Wind
  • 170° at 7 KTS
Visibility
10 SM
Flight Rules
VFR
Cloud Levels
  • Few at 9,000' AGL
  • Scattered at 14,000' AGL
  • Broken at 25,000' AGL
Temperature
13°C / 55°F
Dewpoint
-4°C / 25°F
Humidity
31%
Altimeter
29.96" Hg
Pressure
1014.52 hPa